This is the latest recevied weather packets stored in our database for station/object KN6DHD. If no packets are shown the sender has not sent any weather packets the latest 10 day(s).
| Time | Temp. | Humidity | Pressure | Rain* | Wind** | Luminosity | Snow |
|---|---|---|---|---|---|---|---|
| 1777842969 | 20° C | 63% | 1012.5 hPa | 0 mm | - | 514 W/m² | - |
| 1777842664 | 20° C | 62% | 1012.8 hPa | 0 mm | - | 382 W/m² | - |
| 1777842361 | 20.56° C | 62% | 1012.7 hPa | 0 mm | - | 390 W/m² | - |
| 1777842057 | 20° C | 61% | 1012.8 hPa | 0 mm | - | 681 W/m² | - |
| 1777841753 | 19.44° C | 61% | 1012.9 hPa | 0 mm | - | 643 W/m² | - |
| 1777841450 | 20° C | 62% | 1012.9 hPa | 0 mm | - | 739 W/m² | - |
| 1777841147 | 20.56° C | 61% | 1012.9 hPa | 0 mm | - | 614 W/m² | - |
| 1777840844 | 19.44° C | 63% | 1013.1 hPa | 0 mm | - | 630 W/m² | - |
| 1777840541 | 19.44° C | 63% | 1012.9 hPa | 0 mm | - | 421 W/m² | - |
| 1777840238 | 20.56° C | 62% | 1012.9 hPa | 0 mm | - | 337 W/m² | - |
| 1777839936 | 20.56° C | 61% | 1012.9 hPa | 0 mm | - | 711 W/m² | - |
| 1777839634 | 20° C | 62% | 1013 hPa | 0 mm | - | 589 W/m² | - |
| 1777839332 | 20° C | 62% | 1013.1 hPa | 0 mm | - | 635 W/m² | - |
| 1777839029 | 20° C | 61% | 1012.8 hPa | 0 mm | - | 662 W/m² | - |
| 1777838725 | 18.89° C | 64% | 1013 hPa | 0 mm | - | 665 W/m² | - |
| 1777838421 | 20° C | 62% | 1012.7 hPa | 0 mm | - | 588 W/m² | - |
| 1777838119 | 19.44° C | 63% | 1012.9 hPa | 0 mm | - | 611 W/m² | - |
| 1777837815 | 20° C | 63% | 1012.9 hPa | 0 mm | - | 780 W/m² | - |
| 1777837513 | 19.44° C | 64% | 1012.9 hPa | 0 mm | - | 584 W/m² | - |
| 1777837212 | 18.89° C | 64% | 1012.9 hPa | 0 mm | - | 272 W/m² | - |
| 1777836909 | 18.89° C | 64% | 1013.1 hPa | 0 mm | - | 581 W/m² | - |
| 1777836604 | 20° C | 63% | 1013 hPa | 0 mm | - | 557 W/m² | - |
| 1777836301 | 18.89° C | 64% | 1013.2 hPa | 0 mm | - | 629 W/m² | - |
| 1777835996 | 18.33° C | 64% | 1013 hPa | 0 mm | - | 613 W/m² | - |
| 1777835694 | 18.33° C | 65% | 1013.3 hPa | 0 mm | - | 459 W/m² | - |
* Rain latest hour (hover to see other rain measurements)
** Current wind speed in m/s (hover to see current wind gust speed)